Terminal Aerodrome Forecast
Issued by NWS Chicago, IL

Home | Current Version | Previous Version | Graphics & Text | Print | Product List | Glossary On
Versions: 1 2 3 4 5 6 7 8 9 10 11 12 13 14 15 16 17 18 19 20 21 22 23 24 25
462
FTUS43 KLOT 081725
TAFRFD
TAF
KRFD 081725Z 0818/0918 28016G26KT P6SM -SHSN OVC025
     FM090100 29012G18KT P6SM -SN OVC020
     FM090600 29012KT P6SM -SN BKN020
     FM091500 29010KT P6SM BKN035=

USA.gov is the U.S. government's official web portal to all federal, state and local government web resources and services.